Airfield :
LOGIN :

Register | Disclaimer

   EN    FR    IT 

 










Legend :    VFR   Marginal VFR   IFR   Intensive IFR   Very Intensive IFR
Visi :
Ceiling :
>= 8 km
>= 3000ft
5 to 8 km
1000 to 3000 ft
1500m to 5 km
500 to 1000 ft
800 to 1500m
200 to 500 ft
< 800m
< 200 ft
Symbols :   Thunderstorms  Fog  Heavy snow  Heavy precipitations  Wind > 20 kt
SIGMETs :     Misc.  Thunderstorms  Icing  Turbulence  Mountain Waves  Volcanic Ashes







- Airport Elevation : 796 ft
- IATA code : SYT
- Download approach charts


LFLN - Saint-Yan

CURRENT METAR :
  • 240830Z AUTO 32003KT 270V010 9999 OVC041 20/14 Q1022 NOSIG

EXPIRED METARs :
  • 240800Z AUTO 30006KT 9999 BKN040 OVC047 19/13 Q1022 NOSIG
  • 240730Z AUTO 28006KT 250V310 9999 SCT042 OVC048 20/13 Q1021 NOSIG
  • 240700Z AUTO 29005KT 250V320 9999 BKN040 OVC048 19/13 Q1022 NOSIG
  • 240630Z AUTO 29005KT 9999 FEW039 OVC047 19/13 Q1021 NOSIG
  • 240600Z AUTO 28006KT 9999 OVC040 19/13 Q1022 NOSIG

Expired Forecast.
No reported NOTAMs for that airfield.



MET'MAP, your aeronautical weather chart ! - Copyright ORBIFLY December 2007 - Disclaimer

ORBIFLY MET'MAP TEAM :

Programming & Development : Alexandra Zaïnal
Concept & Development : Baudouin d'Aumeries
Co-Development & Prog : Marc-Olivier Méhu
Technical & hardware support : Manuel Goepfert

Contact : metmap@orbifly.com




SOURCES & CREDITS :

   NOAA